PROFILE

 METAR AND TAF INFORMATION
ADDS - METARS form results

(1305 UTC 16 October 2019)
http://aviationweather.gov/metar/data/
 
TAF DTTJ 161100Z 1612/1712 05013KT 9999 SCT020 SCT030 PROB40 TEMPO 1615/1624 4000 4000 TSRA FEW026CB BECMG 1619/1621 09008KT BECMG 1700/1702 VRB03KT TEMPO 1700/1706 4000 SHRA FEW023 

 AIRPORT MAP

 RUNWAY INFORMATION
Runway 09 Runway length 10171 ft Runway width 148 ft
Runway elevation 9 ft Runway displaced threshold 0 ft Runway heading 88
Runway 27 Runway length 10171 ft Runway width 148 ft
Runway elevation 18 ft Runway displaced threshold 0 ft Runway heading 268

 AIRPORT FREQUENCIES
Type APP Name DJERBA APP Frequency 120.3 MHZ
Type TWR Name DJERBA TWR Frequency 118.15 MHZ

 AIRPORT NEAR NAVIGATION AIDS
Type VOR-DME Name Djerba Frequency 112200 KHZ